createdAt,value
2019-05-19T00:01:37.837Z,99.90
2019-05-19T00:04:07.115Z,99.90
2019-05-19T00:06:36.374Z,99.90
2019-05-19T00:09:06.381Z,99.90
2019-05-19T00:11:35.258Z,99.90
2019-05-19T00:14:04.528Z,99.90
2019-05-19T00:16:33.794Z,99.90
2019-05-19T00:19:02.987Z,99.90
2019-05-19T00:21:31.770Z,99.90
2019-05-19T00:24:01.159Z,99.90
2019-05-19T00:26:29.931Z,99.90
2019-05-19T00:28:59.560Z,99.90
2019-05-19T00:31:28.889Z,99.90
2019-05-19T00:33:58.202Z,99.90
2019-05-19T00:36:27.803Z,99.90
2019-05-19T00:38:56.895Z,99.90
2019-05-19T00:41:26.306Z,99.90
2019-05-19T00:43:55.803Z,99.90
2019-05-19T00:46:25.334Z,99.90
2019-05-19T00:48:54.818Z,99.90
2019-05-19T00:51:24.835Z,99.90
2019-05-19T00:53:54.247Z,99.90
2019-05-19T00:56:24.496Z,99.90
2019-05-19T00:58:55.486Z,99.90
2019-05-19T01:01:24.742Z,99.90
2019-05-19T01:03:53.903Z,99.90
2019-05-19T01:06:22.793Z,99.90
2019-05-19T01:08:52.343Z,99.90
2019-05-19T01:11:21.751Z,99.90
2019-05-19T01:13:50.847Z,99.90
2019-05-19T01:16:20.398Z,99.90
2019-05-19T01:18:49.507Z,99.90
2019-05-19T01:21:18.991Z,99.90
2019-05-19T01:23:48.130Z,99.90
2019-05-19T01:26:17.457Z,99.90
2019-05-19T01:28:46.271Z,99.90
2019-05-19T01:31:15.431Z,99.90
2019-05-19T01:33:44.842Z,99.90
2019-05-19T01:36:14.201Z,99.90
2019-05-19T01:38:43.531Z,99.90
2019-05-19T01:41:12.691Z,99.90
2019-05-19T01:43:41.934Z,99.90
2019-05-19T01:46:11.167Z,99.90
2019-05-19T01:48:40.451Z,99.90
2019-05-19T01:51:09.672Z,99.90
2019-05-19T01:53:39.271Z,99.90
2019-05-19T01:56:08.743Z,99.90
2019-05-19T01:58:37.949Z,99.90
2019-05-19T02:01:07.139Z,99.90
2019-05-19T02:03:36.814Z,99.90
2019-05-19T02:06:05.979Z,99.90
2019-05-19T02:08:35.136Z,99.90
2019-05-19T02:11:04.643Z,99.90
2019-05-19T02:13:33.973Z,99.90
2019-05-19T02:16:03.143Z,99.90
2019-05-19T02:18:31.931Z,99.90
2019-05-19T02:21:01.131Z,99.90
2019-05-19T02:23:30.607Z,99.90
2019-05-19T02:25:59.683Z,99.90
2019-05-19T02:28:29.103Z,99.90
2019-05-19T02:30:57.896Z,99.90
2019-05-19T02:33:27.015Z,99.90
2019-05-19T02:35:55.951Z,99.90
2019-05-19T02:38:24.780Z,99.90
2019-05-19T02:40:56.723Z,99.90
2019-05-19T02:43:26.384Z,99.90
2019-05-19T02:45:59.959Z,99.90
2019-05-19T02:48:31.675Z,99.90
2019-05-19T02:51:02.827Z,99.90
2019-05-19T02:53:33.479Z,99.90
2019-05-19T02:56:04.348Z,99.90
2019-05-19T02:58:34.293Z,99.90
2019-05-19T03:01:03.688Z,99.90
2019-05-19T03:03:32.859Z,99.90
2019-05-19T03:06:02.040Z,99.90
2019-05-19T03:08:31.362Z,99.90
2019-05-19T03:11:01.103Z,99.90
2019-05-19T03:13:30.191Z,99.90
2019-05-19T03:15:59.197Z,99.90
2019-05-19T03:18:28.365Z,99.90
2019-05-19T03:21:10.266Z,99.90
2019-05-19T03:23:28.482Z,99.90
2019-05-19T03:25:57.289Z,99.90
2019-05-19T03:28:26.110Z,99.90
2019-05-19T03:31:14.393Z,99.90
2019-05-19T03:33:45.540Z,99.90
2019-05-19T03:36:14.716Z,99.90
2019-05-19T03:38:44.125Z,99.90
2019-05-19T03:41:13.369Z,99.90
2019-05-19T03:43:42.850Z,99.90
2019-05-19T03:46:12.256Z,99.90
2019-05-19T03:48:41.619Z,99.90
2019-05-19T03:51:27.482Z,99.90
2019-05-19T03:53:41.556Z,99.90
2019-05-19T03:56:11.147Z,99.90
2019-05-19T03:58:40.724Z,99.90
2019-05-19T04:01:10.295Z,99.90
2019-05-19T04:03:39.066Z,99.90
2019-05-19T04:06:08.499Z,99.90
2019-05-19T04:08:37.857Z,99.90
2019-05-19T04:11:07.063Z,99.90
2019-05-19T04:13:36.303Z,99.90
2019-05-19T04:16:05.752Z,99.90
2019-05-19T04:18:35.105Z,99.90
2019-05-19T04:21:04.529Z,99.90
2019-05-19T04:23:33.599Z,99.90
2019-05-19T04:26:02.407Z,99.90
2019-05-19T04:28:31.295Z,99.90
2019-05-19T04:31:00.411Z,99.90
2019-05-19T04:33:30.556Z,99.90
2019-05-19T04:35:59.708Z,99.90
2019-05-19T04:38:28.504Z,99.90
2019-05-19T04:40:57.613Z,99.90
2019-05-19T04:43:26.674Z,99.90
2019-05-19T04:45:55.464Z,99.90
2019-05-19T04:48:24.568Z,99.90
2019-05-19T04:50:53.648Z,99.90
2019-05-19T04:53:22.441Z,99.90
2019-05-19T04:55:51.625Z,99.90
2019-05-19T04:58:21.045Z,99.90
2019-05-19T05:00:50.117Z,99.90
2019-05-19T05:03:19.215Z,99.90
2019-05-19T05:05:48.005Z,99.90
2019-05-19T05:08:28.594Z,99.90
2019-05-19T05:10:48.318Z,99.90
2019-05-19T05:13:17.115Z,99.90
2019-05-19T05:15:46.302Z,99.90
2019-05-19T05:18:15.175Z,99.90
2019-05-19T05:20:44.356Z,99.90
2019-05-19T05:23:13.582Z,99.90
2019-05-19T05:25:42.531Z,99.90
2019-05-19T05:28:11.512Z,99.90
2019-05-19T05:30:40.791Z,99.90
2019-05-19T05:33:09.605Z,99.90
2019-05-19T05:35:38.763Z,99.90
2019-05-19T05:38:07.838Z,99.90
2019-05-19T05:40:37.098Z,99.90
2019-05-19T05:43:06.330Z,99.90
2019-05-19T05:45:35.663Z,99.90
2019-05-19T05:48:04.557Z,99.90
2019-05-19T05:50:34.091Z,99.90
2019-05-19T05:53:03.223Z,99.90
2019-05-19T05:55:32.322Z,99.90
2019-05-19T05:58:01.452Z,99.90
2019-05-19T06:00:30.317Z,99.90
2019-05-19T06:02:59.507Z,99.90
2019-05-19T06:05:28.738Z,99.90
2019-05-19T06:07:57.731Z,99.90
2019-05-19T06:10:26.649Z,99.90
2019-05-19T06:12:56.020Z,99.90
2019-05-19T06:15:25.285Z,99.90
2019-05-19T06:17:54.629Z,99.90
2019-05-19T06:20:23.958Z,99.90
2019-05-19T06:22:56.812Z,99.90
2019-05-19T06:25:24.267Z,99.90
2019-05-19T06:27:54.566Z,99.90
2019-05-19T06:30:23.561Z,99.90
2019-05-19T06:32:54.082Z,99.90
2019-05-19T06:35:23.031Z,99.90
2019-05-19T06:37:52.163Z,99.90
2019-05-19T06:40:21.154Z,99.90
2019-05-19T06:42:50.344Z,99.90
2019-05-19T06:45:19.266Z,99.90
2019-05-19T06:47:48.158Z,99.90
2019-05-19T06:50:20.453Z,99.90
2019-05-19T06:52:49.992Z,99.90
2019-05-19T06:55:19.214Z,99.90
2019-05-19T06:57:48.084Z,99.90
2019-05-19T07:00:18.191Z,99.90
2019-05-19T07:02:47.460Z,99.90
2019-05-19T07:05:16.469Z,99.90
2019-05-19T07:07:45.687Z,99.90
2019-05-19T07:10:15.097Z,99.90
2019-05-19T07:12:44.188Z,99.90
2019-05-19T07:15:13.553Z,99.90
2019-05-19T07:17:42.907Z,99.90
2019-05-19T07:20:12.471Z,99.90
2019-05-19T07:22:41.718Z,99.90
2019-05-19T07:25:10.942Z,99.90
2019-05-19T07:27:40.110Z,99.90
2019-05-19T07:30:09.898Z,99.90
2019-05-19T07:32:38.785Z,99.90
2019-05-19T07:35:08.705Z,99.90
2019-05-19T07:37:38.211Z,99.90
2019-05-19T07:40:08.419Z,99.90
2019-05-19T07:42:37.515Z,99.90
2019-05-19T07:45:07.481Z,99.90
2019-05-19T07:47:36.326Z,99.90
2019-05-19T07:50:05.616Z,99.90
2019-05-19T07:52:34.905Z,99.90
2019-05-19T07:55:04.110Z,99.90
2019-05-19T07:57:33.298Z,99.90
2019-05-19T08:00:02.589Z,99.90
2019-05-19T08:02:31.549Z,99.90
2019-05-19T08:05:00.374Z,99.90
2019-05-19T08:07:29.226Z,99.90
2019-05-19T08:09:58.074Z,99.90
2019-05-19T08:12:27.698Z,99.90
2019-05-19T08:14:57.071Z,99.90
2019-05-19T08:17:26.307Z,99.90
2019-05-19T08:19:55.507Z,99.90
2019-05-19T08:22:24.604Z,99.90
2019-05-19T08:24:54.039Z,99.90
2019-05-19T08:27:22.858Z,99.90
2019-05-19T08:29:52.120Z,99.90
2019-05-19T08:32:21.233Z,99.90
2019-05-19T08:34:50.048Z,99.90
2019-05-19T08:37:19.259Z,99.90
2019-05-19T08:39:48.085Z,99.90
2019-05-19T08:42:17.000Z,99.90
2019-05-19T08:44:46.124Z,99.90
2019-05-19T08:47:15.075Z,99.90
2019-05-19T08:49:44.216Z,99.90
2019-05-19T08:52:13.518Z,99.90
2019-05-19T08:54:42.753Z,99.90
2019-05-19T08:57:12.353Z,93.30
2019-05-19T08:59:41.205Z,94.00
2019-05-19T09:02:10.152Z,96.60
2019-05-19T09:04:39.403Z,97.30
2019-05-19T09:07:08.271Z,97.30
2019-05-19T09:09:37.395Z,93.80
2019-05-19T09:12:06.798Z,84.00
2019-05-19T09:14:35.593Z,84.90
2019-05-19T09:17:04.899Z,85.00
2019-05-19T09:19:33.971Z,80.40
2019-05-19T09:22:02.750Z,85.30
2019-05-19T09:24:31.900Z,76.30
2019-05-19T09:27:01.259Z,74.60
2019-05-19T09:29:30.051Z,76.50
2019-05-19T09:31:59.172Z,74.60
2019-05-19T09:34:28.266Z,75.40
2019-05-19T09:36:57.066Z,68.70
2019-05-19T09:39:25.948Z,74.50
2019-05-19T09:41:55.323Z,71.60
2019-05-19T09:44:24.423Z,74.90
2019-05-19T09:46:53.495Z,72.90
2019-05-19T09:49:31.662Z,74.90
2019-05-19T09:52:00.587Z,71.90
2019-05-19T09:54:42.701Z,68.20
2019-05-19T09:57:00.880Z,68.30
2019-05-19T09:59:30.288Z,68.50
2019-05-19T10:01:59.446Z,68.00
2019-05-19T10:04:28.608Z,66.50
2019-05-19T10:06:57.783Z,67.70
2019-05-19T10:09:55.741Z,63.40
2019-05-19T10:12:24.527Z,62.80
2019-05-19T10:14:53.440Z,63.20
2019-05-19T10:17:22.341Z,64.10
2019-05-19T10:19:51.526Z,67.10
2019-05-19T10:22:20.537Z,59.80
2019-05-19T10:25:03.673Z,62.30
2019-05-19T10:27:21.784Z,60.60
2019-05-19T10:29:51.511Z,59.60
2019-05-19T10:32:20.499Z,60.90
2019-05-19T10:34:49.754Z,60.20
2019-05-19T10:37:18.838Z,59.70
2019-05-19T10:39:47.670Z,55.40
2019-05-19T10:42:17.044Z,59.80
2019-05-19T10:44:45.975Z,55.40
2019-05-19T10:47:15.208Z,54.30
2019-05-19T10:49:44.603Z,56.20
2019-05-19T10:52:13.705Z,53.30
2019-05-19T10:54:43.043Z,53.70
2019-05-19T10:57:12.289Z,56.00
2019-05-19T10:59:41.743Z,58.10
2019-05-19T11:02:11.094Z,56.20
2019-05-19T11:04:39.864Z,56.80
2019-05-19T11:07:09.404Z,56.80
2019-05-19T11:09:38.495Z,56.40
2019-05-19T11:12:07.399Z,58.40
2019-05-19T11:14:36.491Z,55.40
2019-05-19T11:17:05.592Z,54.20
2019-05-19T11:19:34.960Z,52.50
2019-05-19T11:22:03.822Z,53.70
2019-05-19T11:24:32.731Z,55.70
2019-05-19T11:27:01.938Z,57.30
2019-05-19T11:29:30.715Z,58.60
2019-05-19T11:31:59.919Z,58.40
2019-05-19T11:34:28.751Z,58.80
2019-05-19T11:36:57.721Z,58.90
2019-05-19T11:39:26.587Z,60.00
2019-05-19T11:41:55.746Z,59.80
2019-05-19T11:44:24.636Z,59.40
2019-05-19T11:46:54.036Z,59.30
2019-05-19T11:49:23.462Z,58.10
2019-05-19T11:51:52.696Z,57.60
2019-05-19T11:54:21.863Z,59.20
2019-05-19T11:56:51.023Z,58.30
2019-05-19T11:59:19.802Z,58.70
2019-05-19T12:01:48.942Z,61.30
2019-05-19T12:04:18.559Z,59.40
2019-05-19T12:06:47.448Z,60.50
2019-05-19T12:09:16.636Z,57.20
2019-05-19T12:11:45.443Z,57.40
2019-05-19T12:14:14.563Z,53.90
2019-05-19T12:16:43.663Z,55.60
2019-05-19T12:19:12.792Z,58.20
2019-05-19T12:21:41.879Z,58.90
2019-05-19T12:24:11.287Z,57.30
2019-05-19T12:26:40.100Z,59.10
2019-05-19T12:29:09.296Z,57.20
2019-05-19T12:31:38.086Z,58.10
2019-05-19T12:34:06.951Z,58.50
2019-05-19T12:36:36.155Z,54.90
2019-05-19T12:39:07.106Z,57.40
2019-05-19T12:41:36.255Z,55.30
2019-05-19T12:44:05.426Z,56.90
2019-05-19T12:46:34.596Z,55.60
2019-05-19T12:49:03.755Z,55.70
2019-05-19T12:51:33.342Z,55.90
2019-05-19T12:54:02.462Z,57.10
2019-05-19T12:56:39.558Z,57.60
2019-05-19T12:59:02.743Z,57.30
2019-05-19T13:01:31.825Z,58.50
2019-05-19T13:04:00.618Z,58.10
2019-05-19T13:06:29.808Z,56.70
2019-05-19T13:08:58.899Z,56.70
2019-05-19T13:11:28.539Z,58.60
2019-05-19T13:13:57.968Z,58.40
2019-05-19T13:16:26.826Z,57.90
2019-05-19T13:18:55.955Z,59.80
2019-05-19T13:21:25.207Z,57.90
2019-05-19T13:23:55.907Z,58.20
2019-05-19T13:26:25.530Z,57.30
2019-05-19T13:28:54.682Z,57.30
2019-05-19T13:31:23.831Z,57.70
2019-05-19T13:33:52.915Z,60.10
2019-05-19T13:36:22.403Z,65.00
2019-05-19T13:38:51.271Z,66.50
2019-05-19T13:41:20.551Z,68.10
2019-05-19T13:43:49.715Z,67.80
2019-05-19T13:46:18.708Z,67.20
2019-05-19T13:48:48.120Z,63.00
2019-05-19T13:51:17.368Z,59.80
2019-05-19T13:53:46.175Z,60.00
2019-05-19T13:56:15.810Z,61.00
2019-05-19T13:58:45.056Z,62.20
2019-05-19T14:01:27.659Z,60.00
2019-05-19T14:03:45.027Z,59.00
2019-05-19T14:06:14.183Z,59.00
2019-05-19T14:08:43.355Z,56.70
2019-05-19T14:11:12.519Z,53.80
2019-05-19T14:13:41.704Z,52.50
2019-05-19T14:16:10.560Z,52.50
2019-05-19T14:18:40.060Z,52.50
2019-05-19T14:21:08.970Z,51.80
2019-05-19T14:23:38.503Z,50.50
2019-05-19T14:26:08.018Z,51.70
2019-05-19T14:28:37.794Z,50.80
2019-05-19T14:31:06.638Z,51.00
2019-05-19T14:33:35.553Z,49.70
2019-05-19T14:36:05.067Z,50.90
2019-05-19T14:38:34.484Z,51.40
2019-05-19T14:41:03.639Z,52.80
2019-05-19T14:43:32.922Z,53.80
2019-05-19T14:46:02.005Z,52.60
2019-05-19T14:48:31.674Z,53.20
2019-05-19T14:51:00.762Z,49.20
2019-05-19T14:53:29.573Z,50.00
2019-05-19T14:55:59.038Z,49.40
2019-05-19T14:58:28.380Z,48.00
2019-05-19T15:00:57.466Z,48.90
2019-05-19T15:03:26.967Z,49.10
2019-05-19T15:05:56.367Z,49.30
2019-05-19T15:08:25.201Z,48.80
2019-05-19T15:10:54.671Z,48.20
2019-05-19T15:13:23.484Z,49.40
2019-05-19T15:15:53.004Z,50.10
2019-05-19T15:18:22.378Z,47.70
2019-05-19T15:20:52.093Z,49.70
2019-05-19T15:23:21.941Z,49.30
2019-05-19T15:25:50.838Z,49.30
2019-05-19T15:28:19.779Z,48.80
2019-05-19T15:30:48.894Z,53.40
2019-05-19T15:33:17.823Z,57.10
2019-05-19T15:35:46.663Z,62.80
2019-05-19T15:38:15.860Z,65.70
2019-05-19T15:40:45.353Z,76.40
2019-05-19T15:43:14.760Z,94.90
2019-05-19T15:45:45.036Z,94.80
2019-05-19T15:48:14.251Z,91.40
2019-05-19T15:50:43.052Z,97.30
2019-05-19T15:53:12.495Z,97.10
2019-05-19T15:55:41.292Z,96.00
2019-05-19T15:58:16.656Z,98.80
2019-05-19T16:00:41.419Z,92.90
2019-05-19T16:03:11.177Z,91.00
2019-05-19T16:05:40.345Z,92.00
2019-05-19T16:08:09.232Z,86.90
2019-05-19T16:10:38.963Z,81.30
2019-05-19T16:13:08.331Z,85.20
2019-05-19T16:15:37.502Z,75.60
2019-05-19T16:18:07.430Z,80.60
2019-05-19T16:20:36.619Z,79.30
2019-05-19T16:23:05.705Z,77.30
2019-05-19T16:25:34.879Z,71.70
2019-05-19T16:28:03.806Z,71.20
2019-05-19T16:30:33.190Z,71.70
2019-05-19T16:33:02.099Z,69.90
2019-05-19T16:35:31.401Z,68.70
2019-05-19T16:38:00.955Z,69.30
2019-05-19T16:40:30.419Z,67.20
2019-05-19T16:43:02.333Z,65.20
2019-05-19T16:45:30.730Z,66.20
2019-05-19T16:48:00.202Z,64.70
2019-05-19T16:50:29.231Z,65.30
2019-05-19T16:52:58.497Z,64.60
2019-05-19T16:55:29.548Z,65.70
2019-05-19T16:57:59.004Z,64.40
2019-05-19T17:00:29.059Z,63.40
2019-05-19T17:02:58.667Z,64.40
2019-05-19T17:05:27.912Z,65.50
2019-05-19T17:07:57.063Z,66.40
2019-05-19T17:10:26.074Z,69.40
2019-05-19T17:12:55.222Z,68.50
2019-05-19T17:15:24.176Z,69.20
2019-05-19T17:17:53.679Z,69.50
2019-05-19T17:20:23.247Z,70.90
2019-05-19T17:22:52.118Z,70.40
2019-05-19T17:25:21.352Z,71.50
2019-05-19T17:27:51.126Z,72.60
2019-05-19T17:30:20.738Z,73.60
2019-05-19T17:32:52.618Z,72.70
2019-05-19T17:35:22.022Z,71.70
2019-05-19T17:37:51.760Z,74.50
2019-05-19T17:40:21.058Z,79.00
2019-05-19T17:42:50.131Z,91.60
2019-05-19T17:45:19.624Z,97.30
2019-05-19T17:47:48.460Z,99.80
2019-05-19T17:50:21.023Z,99.90
2019-05-19T17:52:50.231Z,99.90
2019-05-19T17:55:20.058Z,99.90
2019-05-19T17:57:50.093Z,99.90
2019-05-19T18:00:25.216Z,99.90
2019-05-19T18:02:54.651Z,99.90
2019-05-19T18:05:23.965Z,99.90
2019-05-19T18:07:53.123Z,99.90
2019-05-19T18:10:22.278Z,99.90
2019-05-19T18:12:51.647Z,99.90
2019-05-19T18:15:20.585Z,99.90
2019-05-19T18:17:49.714Z,99.90
2019-05-19T18:20:23.906Z,99.90
2019-05-19T18:22:49.998Z,99.90
2019-05-19T18:25:18.856Z,99.90
2019-05-19T18:27:47.907Z,99.90
2019-05-19T18:30:17.509Z,99.90
2019-05-19T18:32:47.459Z,99.90
2019-05-19T18:35:16.964Z,99.90
2019-05-19T18:37:46.146Z,99.90
2019-05-19T18:40:15.667Z,99.90
2019-05-19T18:42:44.822Z,99.90
2019-05-19T18:45:14.242Z,99.90
2019-05-19T18:47:43.566Z,99.90
2019-05-19T18:50:12.879Z,99.90
2019-05-19T18:52:42.022Z,99.90
2019-05-19T18:55:10.926Z,99.90
2019-05-19T18:57:39.854Z,99.90
2019-05-19T19:00:09.334Z,99.90
2019-05-19T19:02:38.591Z,99.90
2019-05-19T19:05:08.502Z,99.90
2019-05-19T19:07:56.423Z,99.90
2019-05-19T19:10:25.286Z,99.90
2019-05-19T19:12:54.769Z,99.90
2019-05-19T19:15:24.203Z,99.90
2019-05-19T19:17:53.411Z,99.90
2019-05-19T19:20:22.978Z,99.90
2019-05-19T19:22:52.223Z,99.90
2019-05-19T19:25:21.019Z,99.90
2019-05-19T19:27:50.806Z,99.90
2019-05-19T19:30:20.278Z,99.90
2019-05-19T19:32:49.692Z,99.90
2019-05-19T19:35:18.799Z,99.90
2019-05-19T19:37:48.325Z,99.90
2019-05-19T19:40:25.431Z,99.90
2019-05-19T19:42:54.593Z,99.90
2019-05-19T19:45:23.945Z,99.90
2019-05-19T19:47:52.775Z,99.90
2019-05-19T19:50:22.252Z,99.90
2019-05-19T19:52:51.338Z,99.90
2019-05-19T19:55:20.516Z,99.90
2019-05-19T19:57:49.775Z,99.90
2019-05-19T20:00:44.675Z,99.90
2019-05-19T20:03:14.444Z,99.90
2019-05-19T20:05:43.368Z,99.90
2019-05-19T20:08:12.417Z,99.90
2019-05-19T20:10:41.916Z,99.90
2019-05-19T20:13:11.043Z,99.90
2019-05-19T20:15:40.464Z,99.90
2019-05-19T20:18:09.312Z,99.90
2019-05-19T20:20:38.398Z,99.90
2019-05-19T20:23:07.756Z,99.90
2019-05-19T20:25:37.605Z,99.90
2019-05-19T20:28:06.979Z,99.90
2019-05-19T20:30:36.726Z,99.90
2019-05-19T20:33:05.898Z,99.90
2019-05-19T20:35:35.308Z,99.90
2019-05-19T20:38:04.793Z,99.90
2019-05-19T20:40:33.843Z,99.90
2019-05-19T20:43:02.945Z,99.90
2019-05-19T20:45:32.144Z,99.90
2019-05-19T20:48:01.016Z,99.90
2019-05-19T20:50:29.972Z,99.90
2019-05-19T20:52:59.255Z,99.90
2019-05-19T20:55:28.340Z,99.90
2019-05-19T20:57:57.072Z,99.90
2019-05-19T21:00:26.005Z,99.90
2019-05-19T21:02:55.069Z,99.90
2019-05-19T21:05:24.207Z,99.90
2019-05-19T21:07:53.182Z,99.90
2019-05-19T21:10:21.958Z,99.90
2019-05-19T21:12:51.512Z,99.90
2019-05-19T21:15:20.915Z,99.90
2019-05-19T21:17:49.996Z,99.90
2019-05-19T21:20:18.825Z,99.90
2019-05-19T21:22:48.131Z,99.90
2019-05-19T21:25:17.179Z,99.90
2019-05-19T21:27:46.284Z,99.90
2019-05-19T21:30:15.191Z,99.90
2019-05-19T21:32:44.268Z,99.90
2019-05-19T21:35:13.232Z,99.90
2019-05-19T21:37:42.257Z,99.90
2019-05-19T21:40:11.179Z,99.90
2019-05-19T21:42:40.507Z,99.90
2019-05-19T21:45:09.687Z,99.90
2019-05-19T21:47:38.720Z,99.90
2019-05-19T21:50:08.721Z,99.90
2019-05-19T21:52:38.062Z,99.90
2019-05-19T21:55:07.935Z,99.90
2019-05-19T21:57:37.595Z,99.90
2019-05-19T22:00:08.531Z,99.90
2019-05-19T22:02:37.961Z,99.90
2019-05-19T22:05:07.062Z,99.90
2019-05-19T22:07:45.886Z,99.90
2019-05-19T22:10:14.770Z,99.90
2019-05-19T22:12:43.901Z,99.90
2019-05-19T22:15:13.119Z,99.90
2019-05-19T22:17:42.400Z,99.90
2019-05-19T22:20:13.763Z,99.90
2019-05-19T22:22:43.048Z,99.90
2019-05-19T22:25:12.463Z,99.90
2019-05-19T22:27:41.728Z,99.90
2019-05-19T22:30:10.714Z,99.90
2019-05-19T22:32:39.733Z,99.90
2019-05-19T22:35:12.456Z,99.90
2019-05-19T22:37:41.956Z,99.90
2019-05-19T22:40:11.056Z,99.90
2019-05-19T22:42:40.455Z,99.90
2019-05-19T22:45:09.639Z,99.90
2019-05-19T22:47:38.507Z,99.90
2019-05-19T22:50:07.848Z,99.90
2019-05-19T22:52:36.931Z,99.90
2019-05-19T22:55:06.762Z,99.90
2019-05-19T22:57:36.124Z,99.90
2019-05-19T23:00:06.071Z,99.90
2019-05-19T23:02:35.433Z,99.90
2019-05-19T23:05:04.779Z,99.90
2019-05-19T23:07:33.771Z,99.90
2019-05-19T23:10:03.009Z,99.90
2019-05-19T23:12:32.332Z,99.90
2019-05-19T23:15:01.441Z,99.90
2019-05-19T23:17:30.598Z,99.90
2019-05-19T23:19:59.315Z,99.90
2019-05-19T23:22:28.709Z,99.90
2019-05-19T23:24:58.261Z,99.90
2019-05-19T23:27:27.529Z,99.90
2019-05-19T23:29:56.717Z,99.90
2019-05-19T23:32:25.712Z,99.90
2019-05-19T23:34:54.721Z,99.90
2019-05-19T23:37:23.734Z,99.90
2019-05-19T23:39:54.213Z,99.90
2019-05-19T23:42:23.680Z,99.90
2019-05-19T23:44:52.919Z,99.90
2019-05-19T23:47:22.200Z,99.90
2019-05-19T23:49:51.202Z,99.90
2019-05-19T23:52:20.300Z,99.90
2019-05-19T23:54:49.111Z,99.90
2019-05-19T23:57:18.243Z,99.90
2019-05-19T23:59:47.005Z,99.90
